sensor_id;sensor_type;location;lat;lon;timestamp;P1;durP1;ratioP1;P2;durP2;ratioP2
68438;SDS011;55421;51.600;5.718;2023-04-24T00:01:26;3.80;;;3.30;;
68438;SDS011;55421;51.600;5.718;2023-04-24T00:03:56;5.40;;;4.40;;
68438;SDS011;55421;51.600;5.718;2023-04-24T00:06:26;5.40;;;4.60;;
68438;SDS011;55421;51.600;5.718;2023-04-24T00:09:00;5.50;;;4.40;;
68438;SDS011;55421;51.600;5.718;2023-04-24T00:11:27;5.10;;;4.30;;
68438;SDS011;55421;51.600;5.718;2023-04-24T00:13:54;5.60;;;4.70;;
68438;SDS011;55421;51.600;5.718;2023-04-24T00:16:21;6.00;;;5.10;;
68438;SDS011;55421;51.600;5.718;2023-04-24T00:18:48;6.50;;;5.00;;
68438;SDS011;55421;51.600;5.718;2023-04-24T00:21:15;6.30;;;5.20;;
68438;SDS011;55421;51.600;5.718;2023-04-24T00:23:44;7.20;;;5.80;;
68438;SDS011;55421;51.600;5.718;2023-04-24T00:26:10;6.60;;;5.50;;
68438;SDS011;55421;51.600;5.718;2023-04-24T00:28:37;6.50;;;4.70;;
68438;SDS011;55421;51.600;5.718;2023-04-24T00:31:03;5.80;;;4.10;;
68438;SDS011;55421;51.600;5.718;2023-04-24T00:33:30;8.30;;;6.40;;
68438;SDS011;55421;51.600;5.718;2023-04-24T00:35:56;9.60;;;6.70;;
68438;SDS011;55421;51.600;5.718;2023-04-24T00:38:23;7.80;;;6.10;;
68438;SDS011;55421;51.600;5.718;2023-04-24T00:40:49;8.70;;;6.30;;
68438;SDS011;55421;51.600;5.718;2023-04-24T00:43:16;9.40;;;6.00;;
68438;SDS011;55421;51.600;5.718;2023-04-24T00:45:43;12.90;;;7.60;;
68438;SDS011;55421;51.600;5.718;2023-04-24T00:48:11;16.50;;;7.80;;
68438;SDS011;55421;51.600;5.718;2023-04-24T00:50:38;12.40;;;7.60;;
68438;SDS011;55421;51.600;5.718;2023-04-24T00:53:05;9.30;;;6.70;;
68438;SDS011;55421;51.600;5.718;2023-04-24T00:55:32;12.50;;;7.90;;
68438;SDS011;55421;51.600;5.718;2023-04-24T00:57:59;14.50;;;7.60;;
68438;SDS011;55421;51.600;5.718;2023-04-24T01:00:26;14.50;;;8.50;;
68438;SDS011;55421;51.600;5.718;2023-04-24T01:02:53;12.10;;;7.40;;
68438;SDS011;55421;51.600;5.718;2023-04-24T01:05:20;13.30;;;8.50;;
68438;SDS011;55421;51.600;5.718;2023-04-24T01:07:47;12.10;;;7.40;;
68438;SDS011;55421;51.600;5.718;2023-04-24T01:10:15;13.20;;;8.50;;
68438;SDS011;55421;51.600;5.718;2023-04-24T01:12:43;13.90;;;8.70;;
68438;SDS011;55421;51.600;5.718;2023-04-24T01:15:10;13.30;;;8.40;;
68438;SDS011;55421;51.600;5.718;2023-04-24T01:17:36;12.60;;;7.80;;
68438;SDS011;55421;51.600;5.718;2023-04-24T01:20:05;15.30;;;7.80;;
68438;SDS011;55421;51.600;5.718;2023-04-24T01:22:33;17.90;;;8.80;;
68438;SDS011;55421;51.600;5.718;2023-04-24T01:25:01;12.30;;;6.60;;
68438;SDS011;55421;51.600;5.718;2023-04-24T01:27:28;14.00;;;9.10;;
68438;SDS011;55421;51.600;5.718;2023-04-24T01:29:55;16.20;;;9.40;;
68438;SDS011;55421;51.600;5.718;2023-04-24T01:32:21;13.90;;;8.80;;
68438;SDS011;55421;51.600;5.718;2023-04-24T01:34:49;12.70;;;9.00;;
68438;SDS011;55421;51.600;5.718;2023-04-24T01:37:16;13.50;;;8.30;;
68438;SDS011;55421;51.600;5.718;2023-04-24T01:39:43;13.60;;;9.10;;
68438;SDS011;55421;51.600;5.718;2023-04-24T01:42:10;14.10;;;9.30;;
68438;SDS011;55421;51.600;5.718;2023-04-24T01:44:38;12.10;;;8.60;;
68438;SDS011;55421;51.600;5.718;2023-04-24T01:47:06;14.80;;;9.00;;
68438;SDS011;55421;51.600;5.718;2023-04-24T01:49:33;12.60;;;9.10;;
68438;SDS011;55421;51.600;5.718;2023-04-24T01:52:00;12.40;;;8.10;;
68438;SDS011;55421;51.600;5.718;2023-04-24T01:54:26;15.90;;;9.90;;
68438;SDS011;55421;51.600;5.718;2023-04-24T01:56:53;14.50;;;7.90;;
68438;SDS011;55421;51.600;5.718;2023-04-24T01:59:20;14.50;;;9.30;;
68438;SDS011;55421;51.600;5.718;2023-04-24T02:01:47;20.50;;;11.60;;
68438;SDS011;55421;51.600;5.718;2023-04-24T02:04:14;12.30;;;9.50;;
68438;SDS011;55421;51.600;5.718;2023-04-24T02:06:41;19.40;;;10.70;;
68438;SDS011;55421;51.600;5.718;2023-04-24T02:09:07;16.20;;;11.30;;
68438;SDS011;55421;51.600;5.718;2023-04-24T02:11:34;17.30;;;11.40;;
68438;SDS011;55421;51.600;5.718;2023-04-24T02:14:00;17.50;;;12.10;;
68438;SDS011;55421;51.600;5.718;2023-04-24T02:16:28;16.80;;;11.40;;
68438;SDS011;55421;51.600;5.718;2023-04-24T02:18:58;18.70;;;11.10;;
68438;SDS011;55421;51.600;5.718;2023-04-24T02:21:24;16.60;;;10.60;;
68438;SDS011;55421;51.600;5.718;2023-04-24T02:23:51;17.70;;;10.80;;
68438;SDS011;55421;51.600;5.718;2023-04-24T02:26:18;17.60;;;11.70;;
68438;SDS011;55421;51.600;5.718;2023-04-24T02:28:44;19.50;;;12.60;;
68438;SDS011;55421;51.600;5.718;2023-04-24T02:31:11;18.60;;;12.30;;
68438;SDS011;55421;51.600;5.718;2023-04-24T02:33:37;15.50;;;10.30;;
68438;SDS011;55421;51.600;5.718;2023-04-24T02:36:04;20.40;;;12.20;;
68438;SDS011;55421;51.600;5.718;2023-04-24T02:38:31;17.30;;;11.20;;
68438;SDS011;55421;51.600;5.718;2023-04-24T02:40:57;16.00;;;11.10;;
68438;SDS011;55421;51.600;5.718;2023-04-24T02:43:24;20.70;;;13.50;;
68438;SDS011;55421;51.600;5.718;2023-04-24T02:45:50;20.10;;;12.60;;
68438;SDS011;55421;51.600;5.718;2023-04-24T02:48:17;22.30;;;13.40;;
68438;SDS011;55421;51.600;5.718;2023-04-24T02:50:44;18.00;;;12.50;;
68438;SDS011;55421;51.600;5.718;2023-04-24T02:53:11;21.30;;;13.00;;
68438;SDS011;55421;51.600;5.718;2023-04-24T02:55:37;13.70;;;9.60;;
68438;SDS011;55421;51.600;5.718;2023-04-24T02:58:04;20.30;;;13.00;;
68438;SDS011;55421;51.600;5.718;2023-04-24T03:00:32;20.60;;;12.40;;
68438;SDS011;55421;51.600;5.718;2023-04-24T03:02:58;16.10;;;10.70;;
68438;SDS011;55421;51.600;5.718;2023-04-24T03:05:25;16.50;;;11.30;;
68438;SDS011;55421;51.600;5.718;2023-04-24T03:07:51;17.30;;;10.70;;
68438;SDS011;55421;51.600;5.718;2023-04-24T03:10:19;15.50;;;11.70;;
68438;SDS011;55421;51.600;5.718;2023-04-24T03:12:45;15.10;;;10.90;;
68438;SDS011;55421;51.600;5.718;2023-04-24T03:15:12;15.60;;;11.10;;
68438;SDS011;55421;51.600;5.718;2023-04-24T03:17:38;18.30;;;12.00;;
68438;SDS011;55421;51.600;5.718;2023-04-24T03:20:06;22.70;;;13.00;;
68438;SDS011;55421;51.600;5.718;2023-04-24T03:22:34;18.70;;;11.40;;
68438;SDS011;55421;51.600;5.718;2023-04-24T03:25:01;19.70;;;12.00;;
68438;SDS011;55421;51.600;5.718;2023-04-24T03:27:28;19.00;;;12.30;;
68438;SDS011;55421;51.600;5.718;2023-04-24T03:29:54;17.30;;;11.40;;
68438;SDS011;55421;51.600;5.718;2023-04-24T03:32:24;15.00;;;10.50;;
68438;SDS011;55421;51.600;5.718;2023-04-24T03:34:51;17.40;;;12.20;;
68438;SDS011;55421;51.600;5.718;2023-04-24T03:37:20;19.80;;;11.40;;
68438;SDS011;55421;51.600;5.718;2023-04-24T03:39:46;19.10;;;11.60;;
68438;SDS011;55421;51.600;5.718;2023-04-24T03:42:13;13.60;;;8.00;;
68438;SDS011;55421;51.600;5.718;2023-04-24T03:44:39;20.50;;;12.10;;
68438;SDS011;55421;51.600;5.718;2023-04-24T03:47:05;19.70;;;11.90;;
68438;SDS011;55421;51.600;5.718;2023-04-24T03:49:32;17.40;;;11.70;;
68438;SDS011;55421;51.600;5.718;2023-04-24T03:51:58;20.70;;;10.50;;
68438;SDS011;55421;51.600;5.718;2023-04-24T03:54:25;17.60;;;11.70;;
68438;SDS011;55421;51.600;5.718;2023-04-24T03:56:51;19.20;;;11.70;;
68438;SDS011;55421;51.600;5.718;2023-04-24T03:59:18;15.50;;;10.90;;
68438;SDS011;55421;51.600;5.718;2023-04-24T04:01:44;15.40;;;10.00;;
68438;SDS011;55421;51.600;5.718;2023-04-24T04:04:11;17.10;;;10.10;;
68438;SDS011;55421;51.600;5.718;2023-04-24T04:06:38;11.90;;;7.70;;
68438;SDS011;55421;51.600;5.718;2023-04-24T04:09:04;14.40;;;8.90;;
68438;SDS011;55421;51.600;5.718;2023-04-24T04:11:31;13.80;;;8.90;;
68438;SDS011;55421;51.600;5.718;2023-04-24T04:13:57;14.50;;;9.10;;
68438;SDS011;55421;51.600;5.718;2023-04-24T04:16:24;16.20;;;9.60;;
68438;SDS011;55421;51.600;5.718;2023-04-24T04:18:50;15.50;;;8.90;;
68438;SDS011;55421;51.600;5.718;2023-04-24T04:21:17;16.60;;;9.30;;
68438;SDS011;55421;51.600;5.718;2023-04-24T04:23:43;15.10;;;9.90;;
68438;SDS011;55421;51.600;5.718;2023-04-24T04:26:11;17.10;;;10.20;;
68438;SDS011;55421;51.600;5.718;2023-04-24T04:28:37;13.60;;;9.60;;
68438;SDS011;55421;51.600;5.718;2023-04-24T04:31:05;16.20;;;9.20;;
68438;SDS011;55421;51.600;5.718;2023-04-24T04:33:34;13.80;;;9.50;;
68438;SDS011;55421;51.600;5.718;2023-04-24T04:36:02;13.40;;;9.40;;
68438;SDS011;55421;51.600;5.718;2023-04-24T04:38:30;14.20;;;8.80;;
68438;SDS011;55421;51.600;5.718;2023-04-24T04:40:56;12.90;;;8.30;;
68438;SDS011;55421;51.600;5.718;2023-04-24T04:43:23;11.80;;;8.50;;
68438;SDS011;55421;51.600;5.718;2023-04-24T04:45:51;11.70;;;8.90;;
68438;SDS011;55421;51.600;5.718;2023-04-24T04:48:18;13.80;;;7.90;;
68438;SDS011;55421;51.600;5.718;2023-04-24T04:50:44;11.40;;;8.80;;
68438;SDS011;55421;51.600;5.718;2023-04-24T04:53:11;14.50;;;8.80;;
68438;SDS011;55421;51.600;5.718;2023-04-24T04:55:38;10.70;;;8.30;;
68438;SDS011;55421;51.600;5.718;2023-04-24T04:58:05;9.70;;;6.60;;
68438;SDS011;55421;51.600;5.718;2023-04-24T05:00:31;13.50;;;8.00;;
68438;SDS011;55421;51.600;5.718;2023-04-24T05:03:01;9.90;;;7.40;;
68438;SDS011;55421;51.600;5.718;2023-04-24T05:05:28;8.00;;;6.30;;
68438;SDS011;55421;51.600;5.718;2023-04-24T05:07:55;7.00;;;5.90;;
68438;SDS011;55421;51.600;5.718;2023-04-24T05:10:22;7.90;;;6.00;;
68438;SDS011;55421;51.600;5.718;2023-04-24T05:12:48;8.30;;;6.50;;
68438;SDS011;55421;51.600;5.718;2023-04-24T05:15:15;7.70;;;6.60;;
68438;SDS011;55421;51.600;5.718;2023-04-24T05:17:42;9.00;;;7.20;;
68438;SDS011;55421;51.600;5.718;2023-04-24T05:20:08;6.30;;;5.70;;
68438;SDS011;55421;51.600;5.718;2023-04-24T05:22:35;8.00;;;6.30;;
68438;SDS011;55421;51.600;5.718;2023-04-24T05:25:02;9.80;;;6.30;;
68438;SDS011;55421;51.600;5.718;2023-04-24T05:27:29;7.70;;;6.00;;
68438;SDS011;55421;51.600;5.718;2023-04-24T05:29:55;7.80;;;6.20;;
68438;SDS011;55421;51.600;5.718;2023-04-24T05:32:22;7.40;;;6.50;;
68438;SDS011;55421;51.600;5.718;2023-04-24T05:34:48;7.40;;;5.60;;
68438;SDS011;55421;51.600;5.718;2023-04-24T05:37:14;7.30;;;5.80;;
68438;SDS011;55421;51.600;5.718;2023-04-24T05:39:41;7.80;;;5.40;;
68438;SDS011;55421;51.600;5.718;2023-04-24T05:42:07;10.40;;;5.80;;
68438;SDS011;55421;51.600;5.718;2023-04-24T05:44:34;5.70;;;5.10;;
68438;SDS011;55421;51.600;5.718;2023-04-24T05:47:00;6.50;;;4.90;;
68438;SDS011;55421;51.600;5.718;2023-04-24T05:49:27;5.90;;;5.20;;
68438;SDS011;55421;51.600;5.718;2023-04-24T05:51:54;8.20;;;6.00;;
68438;SDS011;55421;51.600;5.718;2023-04-24T05:54:20;7.80;;;5.20;;
68438;SDS011;55421;51.600;5.718;2023-04-24T05:56:47;5.70;;;4.80;;
68438;SDS011;55421;51.600;5.718;2023-04-24T05:59:15;5.50;;;4.20;;
68438;SDS011;55421;51.600;5.718;2023-04-24T06:01:41;7.40;;;5.30;;
68438;SDS011;55421;51.600;5.718;2023-04-24T06:04:08;8.30;;;4.50;;
68438;SDS011;55421;51.600;5.718;2023-04-24T06:06:35;4.90;;;4.40;;
68438;SDS011;55421;51.600;5.718;2023-04-24T06:09:02;4.90;;;4.00;;
68438;SDS011;55421;51.600;5.718;2023-04-24T06:11:29;3.60;;;3.30;;
68438;SDS011;55421;51.600;5.718;2023-04-24T06:13:55;4.00;;;3.50;;
68438;SDS011;55421;51.600;5.718;2023-04-24T06:16:21;2.90;;;2.70;;
68438;SDS011;55421;51.600;5.718;2023-04-24T06:18:48;2.90;;;2.00;;
68438;SDS011;55421;51.600;5.718;2023-04-24T06:21:16;2.60;;;2.00;;
68438;SDS011;55421;51.600;5.718;2023-04-24T06:23:42;2.00;;;1.80;;
68438;SDS011;55421;51.600;5.718;2023-04-24T06:26:09;1.90;;;1.80;;
68438;SDS011;55421;51.600;5.718;2023-04-24T06:28:36;2.00;;;1.80;;
68438;SDS011;55421;51.600;5.718;2023-04-24T06:31:02;1.70;;;1.60;;
68438;SDS011;55421;51.600;5.718;2023-04-24T06:33:28;3.10;;;2.60;;
68438;SDS011;55421;51.600;5.718;2023-04-24T06:35:55;2.50;;;2.00;;
68438;SDS011;55421;51.600;5.718;2023-04-24T06:38:22;3.10;;;1.90;;
68438;SDS011;55421;51.600;5.718;2023-04-24T06:40:48;2.90;;;2.20;;
68438;SDS011;55421;51.600;5.718;2023-04-24T06:43:15;2.00;;;1.70;;
68438;SDS011;55421;51.600;5.718;2023-04-24T06:45:41;2.20;;;1.90;;
68438;SDS011;55421;51.600;5.718;2023-04-24T06:48:09;2.30;;;2.00;;
68438;SDS011;55421;51.600;5.718;2023-04-24T06:50:36;2.40;;;2.20;;
68438;SDS011;55421;51.600;5.718;2023-04-24T06:53:02;2.60;;;2.40;;
68438;SDS011;55421;51.600;5.718;2023-04-24T06:55:29;2.00;;;1.90;;
68438;SDS011;55421;51.600;5.718;2023-04-24T06:57:56;2.10;;;1.60;;
68438;SDS011;55421;51.600;5.718;2023-04-24T07:00:22;4.00;;;1.80;;
68438;SDS011;55421;51.600;5.718;2023-04-24T07:02:50;3.20;;;2.00;;
68438;SDS011;55421;51.600;5.718;2023-04-24T07:05:16;2.80;;;2.10;;
68438;SDS011;55421;51.600;5.718;2023-04-24T07:07:47;3.10;;;2.70;;
68438;SDS011;55421;51.600;5.718;2023-04-24T07:10:13;3.50;;;3.20;;
68438;SDS011;55421;51.600;5.718;2023-04-24T07:12:40;4.10;;;3.80;;
68438;SDS011;55421;51.600;5.718;2023-04-24T07:15:08;4.20;;;3.50;;
68438;SDS011;55421;51.600;5.718;2023-04-24T07:17:35;4.10;;;3.70;;
68438;SDS011;55421;51.600;5.718;2023-04-24T07:20:02;3.70;;;3.30;;
68438;SDS011;55421;51.600;5.718;2023-04-24T07:22:28;2.90;;;2.70;;
68438;SDS011;55421;51.600;5.718;2023-04-24T07:24:55;2.80;;;2.60;;
68438;SDS011;55421;51.600;5.718;2023-04-24T07:27:21;3.60;;;3.30;;
68438;SDS011;55421;51.600;5.718;2023-04-24T07:29:47;5.80;;;3.30;;
68438;SDS011;55421;51.600;5.718;2023-04-24T07:32:14;3.90;;;3.40;;
68438;SDS011;55421;51.600;5.718;2023-04-24T07:34:40;5.80;;;3.80;;
68438;SDS011;55421;51.600;5.718;2023-04-24T07:37:07;5.10;;;4.00;;
68438;SDS011;55421;51.600;5.718;2023-04-24T07:39:33;6.60;;;4.80;;
68438;SDS011;55421;51.600;5.718;2023-04-24T07:42:00;7.80;;;5.40;;
68438;SDS011;55421;51.600;5.718;2023-04-24T07:44:27;6.80;;;5.30;;
68438;SDS011;55421;51.600;5.718;2023-04-24T07:46:54;8.40;;;5.90;;
68438;SDS011;55421;51.600;5.718;2023-04-24T07:49:22;10.40;;;6.70;;
68438;SDS011;55421;51.600;5.718;2023-04-24T07:51:49;9.90;;;6.30;;
68438;SDS011;55421;51.600;5.718;2023-04-24T07:54:16;8.50;;;4.90;;
68438;SDS011;55421;51.600;5.718;2023-04-24T07:56:43;8.10;;;5.40;;
68438;SDS011;55421;51.600;5.718;2023-04-24T07:59:10;9.50;;;5.70;;
68438;SDS011;55421;51.600;5.718;2023-04-24T08:01:37;10.70;;;5.50;;
68438;SDS011;55421;51.600;5.718;2023-04-24T08:04:04;9.80;;;5.10;;
68438;SDS011;55421;51.600;5.718;2023-04-24T08:06:31;11.00;;;5.60;;
68438;SDS011;55421;51.600;5.718;2023-04-24T08:08:58;9.10;;;5.10;;
68438;SDS011;55421;51.600;5.718;2023-04-24T08:11:26;10.40;;;5.60;;
68438;SDS011;55421;51.600;5.718;2023-04-24T08:13:52;7.60;;;3.80;;
68438;SDS011;55421;51.600;5.718;2023-04-24T08:16:20;6.00;;;3.80;;
68438;SDS011;55421;51.600;5.718;2023-04-24T08:18:47;7.20;;;4.70;;
68438;SDS011;55421;51.600;5.718;2023-04-24T08:21:13;7.00;;;3.40;;
68438;SDS011;55421;51.600;5.718;2023-04-24T08:23:43;11.10;;;4.80;;
68438;SDS011;55421;51.600;5.718;2023-04-24T08:26:09;7.80;;;5.60;;
68438;SDS011;55421;51.600;5.718;2023-04-24T08:28:37;7.90;;;4.90;;
68438;SDS011;55421;51.600;5.718;2023-04-24T08:31:04;10.30;;;4.00;;
68438;SDS011;55421;51.600;5.718;2023-04-24T08:33:31;7.80;;;4.10;;
68438;SDS011;55421;51.600;5.718;2023-04-24T08:36:02;9.60;;;3.50;;
68438;SDS011;55421;51.600;5.718;2023-04-24T08:38:32;9.40;;;3.70;;
68438;SDS011;55421;51.600;5.718;2023-04-24T08:41:00;8.50;;;3.70;;
68438;SDS011;55421;51.600;5.718;2023-04-24T08:43:27;13.40;;;4.30;;
68438;SDS011;55421;51.600;5.718;2023-04-24T08:45:56;10.80;;;3.20;;
68438;SDS011;55421;51.600;5.718;2023-04-24T08:48:23;6.10;;;3.50;;
68438;SDS011;55421;51.600;5.718;2023-04-24T08:50:50;8.90;;;3.30;;
68438;SDS011;55421;51.600;5.718;2023-04-24T08:53:18;7.40;;;3.50;;
68438;SDS011;55421;51.600;5.718;2023-04-24T08:55:47;9.70;;;4.50;;
68438;SDS011;55421;51.600;5.718;2023-04-24T08:58:16;11.60;;;5.50;;
68438;SDS011;55421;51.600;5.718;2023-04-24T09:00:44;11.80;;;4.00;;
68438;SDS011;55421;51.600;5.718;2023-04-24T09:03:15;9.90;;;2.80;;
68438;SDS011;55421;51.600;5.718;2023-04-24T09:05:43;9.30;;;3.00;;
68438;SDS011;55421;51.600;5.718;2023-04-24T09:08:13;10.40;;;3.40;;
68438;SDS011;55421;51.600;5.718;2023-04-24T09:10:40;11.50;;;3.60;;
68438;SDS011;55421;51.600;5.718;2023-04-24T09:13:07;10.10;;;3.00;;
68438;SDS011;55421;51.600;5.718;2023-04-24T09:15:38;8.70;;;2.90;;
68438;SDS011;55421;51.600;5.718;2023-04-24T09:18:05;5.80;;;2.40;;
68438;SDS011;55421;51.600;5.718;2023-04-24T09:20:32;7.80;;;2.50;;
68438;SDS011;55421;51.600;5.718;2023-04-24T09:22:59;5.30;;;2.60;;
68438;SDS011;55421;51.600;5.718;2023-04-24T09:25:31;13.40;;;3.80;;
68438;SDS011;55421;51.600;5.718;2023-04-24T09:28:03;11.20;;;3.20;;
68438;SDS011;55421;51.600;5.718;2023-04-24T09:30:32;15.90;;;2.90;;
68438;SDS011;55421;51.600;5.718;2023-04-24T09:33:13;11.30;;;2.90;;
68438;SDS011;55421;51.600;5.718;2023-04-24T09:35:50;6.30;;;2.30;;
68438;SDS011;55421;51.600;5.718;2023-04-24T09:38:18;7.30;;;2.40;;
68438;SDS011;55421;51.600;5.718;2023-04-24T09:40:46;9.20;;;2.20;;
68438;SDS011;55421;51.600;5.718;2023-04-24T09:43:12;9.50;;;2.80;;
68438;SDS011;55421;51.600;5.718;2023-04-24T09:45:39;9.00;;;2.80;;
68438;SDS011;55421;51.600;5.718;2023-04-24T09:48:09;9.50;;;2.80;;
68438;SDS011;55421;51.600;5.718;2023-04-24T09:50:36;9.00;;;2.50;;
68438;SDS011;55421;51.600;5.718;2023-04-24T09:53:05;11.70;;;3.70;;
68438;SDS011;55421;51.600;5.718;2023-04-24T09:55:39;4.90;;;2.10;;
68438;SDS011;55421;51.600;5.718;2023-04-24T09:58:10;4.30;;;1.80;;
68438;SDS011;55421;51.600;5.718;2023-04-24T10:00:37;7.80;;;2.30;;
68438;SDS011;55421;51.600;5.718;2023-04-24T10:03:04;9.50;;;2.60;;
68438;SDS011;55421;51.600;5.718;2023-04-24T10:05:34;4.30;;;2.40;;
68438;SDS011;55421;51.600;5.718;2023-04-24T10:08:06;3.50;;;2.20;;
68438;SDS011;55421;51.600;5.718;2023-04-24T10:10:44;8.60;;;2.60;;
68438;SDS011;55421;51.600;5.718;2023-04-24T10:13:14;8.80;;;2.60;;
68438;SDS011;55421;51.600;5.718;2023-04-24T10:15:44;5.80;;;2.30;;
68438;SDS011;55421;51.600;5.718;2023-04-24T10:18:11;4.50;;;2.50;;
68438;SDS011;55421;51.600;5.718;2023-04-24T10:20:40;10.40;;;2.80;;
68438;SDS011;55421;51.600;5.718;2023-04-24T10:23:07;8.60;;;2.00;;
68438;SDS011;55421;51.600;5.718;2023-04-24T10:25:35;6.90;;;1.80;;
68438;SDS011;55421;51.600;5.718;2023-04-24T10:28:03;4.90;;;1.80;;
68438;SDS011;55421;51.600;5.718;2023-04-24T10:30:32;5.80;;;2.00;;
68438;SDS011;55421;51.600;5.718;2023-04-24T10:35:37;8.50;;;2.50;;
68438;SDS011;55421;51.600;5.718;2023-04-24T10:38:09;6.80;;;1.90;;
68438;SDS011;55421;51.600;5.718;2023-04-24T10:40:40;7.20;;;1.70;;
68438;SDS011;55421;51.600;5.718;2023-04-24T10:43:09;5.40;;;1.70;;
68438;SDS011;55421;51.600;5.718;2023-04-24T10:45:38;8.10;;;2.50;;
68438;SDS011;55421;51.600;5.718;2023-04-24T10:48:09;5.60;;;2.10;;
68438;SDS011;55421;51.600;5.718;2023-04-24T10:50:47;5.20;;;1.70;;
68438;SDS011;55421;51.600;5.718;2023-04-24T10:53:19;5.90;;;1.90;;
68438;SDS011;55421;51.600;5.718;2023-04-24T10:55:51;5.50;;;2.20;;
68438;SDS011;55421;51.600;5.718;2023-04-24T10:58:24;5.80;;;1.90;;
68438;SDS011;55421;51.600;5.718;2023-04-24T11:01:28;4.30;;;1.80;;
68438;SDS011;55421;51.600;5.718;2023-04-24T11:03:58;3.00;;;1.30;;
68438;SDS011;55421;51.600;5.718;2023-04-24T11:06:30;3.10;;;1.40;;
68438;SDS011;55421;51.600;5.718;2023-04-24T11:09:09;4.90;;;1.50;;
68438;SDS011;55421;51.600;5.718;2023-04-24T11:11:45;4.20;;;1.30;;
68438;SDS011;55421;51.600;5.718;2023-04-24T11:14:15;5.70;;;1.70;;
68438;SDS011;55421;51.600;5.718;2023-04-24T11:16:52;4.10;;;1.20;;
68438;SDS011;55421;51.600;5.718;2023-04-24T11:19:25;2.00;;;1.20;;
68438;SDS011;55421;51.600;5.718;2023-04-24T11:22:00;3.80;;;1.00;;
68438;SDS011;55421;51.600;5.718;2023-04-24T11:24:39;6.50;;;1.00;;
68438;SDS011;55421;51.600;5.718;2023-04-24T11:27:17;3.30;;;1.50;;
68438;SDS011;55421;51.600;5.718;2023-04-24T11:30:01;5.20;;;1.80;;
68438;SDS011;55421;51.600;5.718;2023-04-24T11:32:33;3.60;;;2.00;;
68438;SDS011;55421;51.600;5.718;2023-04-24T11:37:50;2.30;;;2.00;;
68438;SDS011;55421;51.600;5.718;2023-04-24T11:40:20;4.00;;;1.90;;
68438;SDS011;55421;51.600;5.718;2023-04-24T11:42:52;3.20;;;1.70;;
68438;SDS011;55421;51.600;5.718;2023-04-24T11:45:25;2.60;;;1.30;;
68438;SDS011;55421;51.600;5.718;2023-04-24T11:47:56;3.60;;;1.10;;
68438;SDS011;55421;51.600;5.718;2023-04-24T11:50:24;3.90;;;0.90;;
68438;SDS011;55421;51.600;5.718;2023-04-24T11:52:53;3.30;;;1.10;;
68438;SDS011;55421;51.600;5.718;2023-04-24T11:57:50;1.90;;;0.70;;
68438;SDS011;55421;51.600;5.718;2023-04-24T12:00:24;2.10;;;0.90;;
68438;SDS011;55421;51.600;5.718;2023-04-24T12:03:07;2.60;;;0.90;;
68438;SDS011;55421;51.600;5.718;2023-04-24T12:05:35;3.20;;;1.10;;
68438;SDS011;55421;51.600;5.718;2023-04-24T12:08:02;2.10;;;1.00;;
68438;SDS011;55421;51.600;5.718;2023-04-24T12:10:30;1.00;;;1.00;;
68438;SDS011;55421;51.600;5.718;2023-04-24T12:12:58;3.50;;;1.10;;
68438;SDS011;55421;51.600;5.718;2023-04-24T12:15:26;1.60;;;0.90;;
68438;SDS011;55421;51.600;5.718;2023-04-24T12:17:55;3.30;;;0.90;;
68438;SDS011;55421;51.600;5.718;2023-04-24T12:20:28;1.30;;;1.00;;
68438;SDS011;55421;51.600;5.718;2023-04-24T12:22:57;3.70;;;1.20;;
68438;SDS011;55421;51.600;5.718;2023-04-24T12:25:26;4.40;;;1.30;;
68438;SDS011;55421;51.600;5.718;2023-04-24T12:30:31;5.00;;;1.40;;
68438;SDS011;55421;51.600;5.718;2023-04-24T12:33:05;7.60;;;1.40;;
68438;SDS011;55421;51.600;5.718;2023-04-24T12:35:33;3.70;;;1.10;;
68438;SDS011;55421;51.600;5.718;2023-04-24T12:38:11;2.70;;;1.40;;
68438;SDS011;55421;51.600;5.718;2023-04-24T12:40:41;5.20;;;1.20;;
68438;SDS011;55421;51.600;5.718;2023-04-24T12:43:18;2.00;;;1.20;;
68438;SDS011;55421;51.600;5.718;2023-04-24T12:45:47;4.20;;;1.30;;
68438;SDS011;55421;51.600;5.718;2023-04-24T12:48:14;4.00;;;1.40;;
68438;SDS011;55421;51.600;5.718;2023-04-24T12:50:42;1.20;;;1.10;;
68438;SDS011;55421;51.600;5.718;2023-04-24T12:53:10;2.10;;;1.20;;
68438;SDS011;55421;51.600;5.718;2023-04-24T12:55:37;1.40;;;1.20;;
68438;SDS011;55421;51.600;5.718;2023-04-24T12:58:03;2.80;;;1.30;;
68438;SDS011;55421;51.600;5.718;2023-04-24T13:00:29;4.10;;;1.60;;
68438;SDS011;55421;51.600;5.718;2023-04-24T13:02:56;3.60;;;1.50;;
68438;SDS011;55421;51.600;5.718;2023-04-24T13:05:23;2.80;;;1.30;;
68438;SDS011;55421;51.600;5.718;2023-04-24T13:07:49;2.80;;;1.30;;
68438;SDS011;55421;51.600;5.718;2023-04-24T13:10:15;2.70;;;1.20;;
68438;SDS011;55421;51.600;5.718;2023-04-24T13:12:42;4.80;;;1.40;;
68438;SDS011;55421;51.600;5.718;2023-04-24T13:15:12;2.70;;;1.30;;
68438;SDS011;55421;51.600;5.718;2023-04-24T13:17:38;3.50;;;1.40;;
68438;SDS011;55421;51.600;5.718;2023-04-24T13:20:05;3.10;;;1.20;;
68438;SDS011;55421;51.600;5.718;2023-04-24T13:22:32;1.10;;;0.80;;
68438;SDS011;55421;51.600;5.718;2023-04-24T13:24:58;2.50;;;1.20;;
68438;SDS011;55421;51.600;5.718;2023-04-24T13:27:25;2.20;;;1.00;;
68438;SDS011;55421;51.600;5.718;2023-04-24T13:29:52;1.90;;;1.10;;
68438;SDS011;55421;51.600;5.718;2023-04-24T13:32:18;2.20;;;1.00;;
68438;SDS011;55421;51.600;5.718;2023-04-24T13:34:45;6.20;;;1.20;;
68438;SDS011;55421;51.600;5.718;2023-04-24T13:37:12;2.00;;;1.40;;
68438;SDS011;55421;51.600;5.718;2023-04-24T13:39:38;2.20;;;1.30;;
68438;SDS011;55421;51.600;5.718;2023-04-24T13:42:05;2.90;;;1.20;;
68438;SDS011;55421;51.600;5.718;2023-04-24T13:44:32;3.60;;;1.40;;
68438;SDS011;55421;51.600;5.718;2023-04-24T13:46:59;2.30;;;0.90;;
68438;SDS011;55421;51.600;5.718;2023-04-24T13:49:26;1.30;;;0.90;;
68438;SDS011;55421;51.600;5.718;2023-04-24T13:51:54;2.60;;;0.80;;
68438;SDS011;55421;51.600;5.718;2023-04-24T13:54:21;1.10;;;1.00;;
68438;SDS011;55421;51.600;5.718;2023-04-24T13:56:49;2.70;;;1.10;;
68438;SDS011;55421;51.600;5.718;2023-04-24T13:59:16;0.90;;;0.90;;
68438;SDS011;55421;51.600;5.718;2023-04-24T14:01:43;1.50;;;1.00;;
68438;SDS011;55421;51.600;5.718;2023-04-24T14:04:11;2.80;;;1.00;;
68438;SDS011;55421;51.600;5.718;2023-04-24T14:06:38;2.60;;;1.20;;
68438;SDS011;55421;51.600;5.718;2023-04-24T14:09:04;3.70;;;1.10;;
68438;SDS011;55421;51.600;5.718;2023-04-24T14:11:33;1.80;;;1.00;;
68438;SDS011;55421;51.600;5.718;2023-04-24T14:14:01;3.00;;;1.30;;
68438;SDS011;55421;51.600;5.718;2023-04-24T14:16:28;3.00;;;1.20;;
68438;SDS011;55421;51.600;5.718;2023-04-24T14:18:55;3.30;;;1.30;;
68438;SDS011;55421;51.600;5.718;2023-04-24T14:21:22;2.80;;;1.30;;
68438;SDS011;55421;51.600;5.718;2023-04-24T14:23:48;2.60;;;1.40;;
68438;SDS011;55421;51.600;5.718;2023-04-24T14:26:15;1.80;;;1.20;;
68438;SDS011;55421;51.600;5.718;2023-04-24T14:28:41;2.50;;;1.50;;
68438;SDS011;55421;51.600;5.718;2023-04-24T14:31:08;1.10;;;0.90;;
68438;SDS011;55421;51.600;5.718;2023-04-24T14:33:35;1.10;;;0.90;;
68438;SDS011;55421;51.600;5.718;2023-04-24T14:36:01;4.10;;;1.40;;
68438;SDS011;55421;51.600;5.718;2023-04-24T14:38:29;1.50;;;1.40;;
68438;SDS011;55421;51.600;5.718;2023-04-24T14:40:57;2.20;;;1.30;;
68438;SDS011;55421;51.600;5.718;2023-04-24T14:43:24;2.40;;;1.50;;
68438;SDS011;55421;51.600;5.718;2023-04-24T14:45:50;1.60;;;1.20;;
68438;SDS011;55421;51.600;5.718;2023-04-24T14:48:17;3.10;;;1.60;;
68438;SDS011;55421;51.600;5.718;2023-04-24T14:50:43;5.00;;;2.10;;
68438;SDS011;55421;51.600;5.718;2023-04-24T14:53:11;4.30;;;2.00;;
68438;SDS011;55421;51.600;5.718;2023-04-24T14:55:37;5.10;;;1.80;;